Awosting, New Jersey
Current Conditions -  °F | °C
As of 9:53 AM on Saturday 25 Oct 2014 (Local Time) from KFWN Reporting Station
Clear Clear  
Wind Chill: 54°   Ceiling: Unl
Heat Index: 54°   Visibility: 10mi
Dew Point: 39°   Wind: 6mph
Humidity: 57%   Direction: 220°SW
Pressure: 29.85"   Gusts: NA
Location:  41.1652°N, 74.3769°W
Report Text: KFWN 251353Z AUTO 22005KT 10SM CLR 12/04 A2985 RMK AO2 SLP109 T01220039
Loading
Personal Weather Stations






























Interactive Weather Map
Tropical Storm Tracking
New forecast layout! Learn more

10-Day Weather Forecast

Advertisements
Track Severe Weather on mobile